createdAt,value
2022-08-31T00:00:39.044Z,23.30
2022-08-31T00:03:27.057Z,23.30
2022-08-31T00:05:59.073Z,23.30
2022-08-31T00:08:29.633Z,23.30
2022-08-31T00:10:58.233Z,23.30
2022-08-31T00:13:28.259Z,23.30
2022-08-31T00:15:58.828Z,23.30
2022-08-31T00:18:29.005Z,23.20
2022-08-31T00:20:58.015Z,23.30
2022-08-31T00:23:26.755Z,23.30
2022-08-31T00:25:55.640Z,23.30
2022-08-31T00:28:24.484Z,23.10
2022-08-31T00:30:53.131Z,23.10
2022-08-31T00:33:21.773Z,23.10
2022-08-31T00:35:51.960Z,23.10
2022-08-31T00:38:24.682Z,23.00
2022-08-31T00:40:53.394Z,23.00
2022-08-31T00:43:41.175Z,23.00
2022-08-31T00:46:11.595Z,23.00
2022-08-31T00:48:43.218Z,23.00
2022-08-31T00:51:18.542Z,23.10
2022-08-31T00:53:50.851Z,23.10
2022-08-31T00:56:21.252Z,23.00
2022-08-31T00:58:54.794Z,23.00
2022-08-31T01:01:24.231Z,22.90
2022-08-31T01:03:52.999Z,22.90
2022-08-31T01:06:28.909Z,22.80
2022-08-31T01:09:00.135Z,22.80
2022-08-31T01:11:29.541Z,22.60
2022-08-31T01:13:58.438Z,22.70
2022-08-31T01:16:33.847Z,22.70
2022-08-31T01:19:06.751Z,22.70
2022-08-31T01:21:44.576Z,22.70
2022-08-31T01:24:15.830Z,22.70
2022-08-31T01:26:44.846Z,22.70
2022-08-31T01:29:24.962Z,22.60
2022-08-31T01:31:53.604Z,22.60
2022-08-31T01:34:22.677Z,22.60
2022-08-31T01:36:52.862Z,22.70
2022-08-31T01:39:23.730Z,22.70
2022-08-31T01:41:52.656Z,22.70
2022-08-31T01:44:23.394Z,22.70
2022-08-31T01:46:52.865Z,22.70
2022-08-31T01:49:24.176Z,22.60
2022-08-31T01:51:54.018Z,22.70
2022-08-31T01:54:26.734Z,22.70
2022-08-31T01:56:56.659Z,22.70
2022-08-31T01:59:33.949Z,22.70
2022-08-31T02:02:22.935Z,22.60
2022-08-31T02:04:52.361Z,22.50
2022-08-31T02:07:22.128Z,22.50
2022-08-31T02:09:53.692Z,22.50
2022-08-31T02:12:22.355Z,22.40
2022-08-31T02:14:51.371Z,22.40
2022-08-31T02:17:20.749Z,22.50
2022-08-31T02:19:49.391Z,22.40
2022-08-31T02:22:18.111Z,22.50
2022-08-31T02:24:46.814Z,22.50
2022-08-31T02:27:16.820Z,22.50
2022-08-31T02:29:45.893Z,22.60
2022-08-31T02:32:21.298Z,22.60
2022-08-31T02:34:50.168Z,22.50
2022-08-31T02:37:20.155Z,22.40
2022-08-31T02:39:51.711Z,22.50
2022-08-31T02:42:33.090Z,22.60
2022-08-31T02:45:18.026Z,22.60
2022-08-31T02:47:46.711Z,22.50
2022-08-31T02:50:42.466Z,22.50
2022-08-31T02:53:13.882Z,22.50
2022-08-31T02:55:44.335Z,22.60
2022-08-31T02:58:15.379Z,22.70
2022-08-31T03:00:48.348Z,22.60
2022-08-31T03:03:18.831Z,22.50
2022-08-31T03:05:47.842Z,22.40
2022-08-31T03:08:17.610Z,22.30
2022-08-31T03:10:48.902Z,22.30
2022-08-31T03:13:20.858Z,22.30
2022-08-31T03:15:49.826Z,22.40
2022-08-31T03:18:18.487Z,22.30
2022-08-31T03:20:47.241Z,22.30
2022-08-31T03:23:16.096Z,22.30
2022-08-31T03:25:44.743Z,22.40
2022-08-31T03:28:13.805Z,22.40
2022-08-31T03:30:48.703Z,22.40
2022-08-31T03:33:18.141Z,22.40
2022-08-31T03:35:47.164Z,22.50
2022-08-31T03:38:17.658Z,22.50
2022-08-31T03:40:46.312Z,22.60
2022-08-31T03:43:16.115Z,22.50
2022-08-31T03:45:45.964Z,22.50
2022-08-31T03:48:16.724Z,22.40
2022-08-31T03:50:46.939Z,22.50
2022-08-31T03:53:25.522Z,22.50
2022-08-31T03:56:02.033Z,22.60
2022-08-31T03:58:33.496Z,22.60
2022-08-31T04:01:05.996Z,22.60
2022-08-31T04:03:58.608Z,22.60
2022-08-31T04:06:47.843Z,22.60
2022-08-31T04:09:34.948Z,22.60
2022-08-31T04:12:21.948Z,22.50
2022-08-31T04:15:10.671Z,22.50
2022-08-31T04:17:59.592Z,22.60
2022-08-31T04:20:50.725Z,22.60
2022-08-31T04:23:19.761Z,22.60
2022-08-31T04:25:52.093Z,22.60
2022-08-31T04:28:20.877Z,22.60
2022-08-31T04:30:49.669Z,22.50
2022-08-31T04:33:19.087Z,22.60
2022-08-31T04:35:49.814Z,22.60
2022-08-31T04:38:19.231Z,22.60
2022-08-31T04:40:49.415Z,22.60
2022-08-31T04:43:21.250Z,22.50
2022-08-31T04:45:52.940Z,22.60
2022-08-31T04:48:21.911Z,22.60
2022-08-31T04:50:51.983Z,22.60
2022-08-31T04:53:20.690Z,22.70
2022-08-31T04:55:49.441Z,22.70
2022-08-31T04:58:20.592Z,22.80
2022-08-31T05:00:49.200Z,22.80
2022-08-31T05:03:23.876Z,22.80
2022-08-31T05:05:58.583Z,22.60
2022-08-31T05:08:29.111Z,22.70
2022-08-31T05:10:57.975Z,22.70
2022-08-31T05:13:28.201Z,22.70
2022-08-31T05:15:58.422Z,22.80
2022-08-31T05:18:27.076Z,22.90
2022-08-31T05:21:09.144Z,23.00
2022-08-31T05:23:39.257Z,23.00
2022-08-31T05:26:08.760Z,23.10
2022-08-31T05:28:37.468Z,23.20
2022-08-31T05:31:08.206Z,23.20
2022-08-31T05:33:43.332Z,23.20
2022-08-31T05:36:16.991Z,23.10
2022-08-31T05:38:46.366Z,23.10
2022-08-31T05:41:16.343Z,23.20
2022-08-31T05:43:45.185Z,23.30
2022-08-31T05:46:15.851Z,23.40
2022-08-31T05:48:49.616Z,23.50
2022-08-31T05:51:21.593Z,23.60
2022-08-31T05:53:50.875Z,23.60
2022-08-31T05:56:22.356Z,23.80
2022-08-31T05:58:55.054Z,23.70
2022-08-31T06:01:26.140Z,23.70
2022-08-31T06:04:17.713Z,23.70
2022-08-31T06:06:48.911Z,23.70
2022-08-31T06:09:21.663Z,23.90
2022-08-31T06:11:51.419Z,23.90
2022-08-31T06:14:21.901Z,23.90
2022-08-31T06:16:51.150Z,23.90
2022-08-31T06:19:21.913Z,24.00
2022-08-31T06:21:53.425Z,24.00
2022-08-31T06:24:27.474Z,24.00
2022-08-31T06:26:59.344Z,24.00
2022-08-31T06:29:34.463Z,24.20
2022-08-31T06:32:08.211Z,24.30
2022-08-31T06:34:40.728Z,24.20
2022-08-31T06:37:18.798Z,24.20
2022-08-31T06:40:27.531Z,24.20
2022-08-31T06:43:15.160Z,24.40
2022-08-31T06:45:58.771Z,24.70
2022-08-31T06:48:48.348Z,24.70
2022-08-31T06:51:17.107Z,24.70
2022-08-31T06:53:48.098Z,24.80
2022-08-31T06:56:36.219Z,24.80
2022-08-31T06:59:26.536Z,24.90
2022-08-31T07:02:21.718Z,24.90
2022-08-31T07:04:50.358Z,25.10
2022-08-31T07:07:19.034Z,25.10
2022-08-31T07:09:49.481Z,25.20
2022-08-31T07:12:18.468Z,25.30
2022-08-31T07:14:54.532Z,25.30
2022-08-31T07:17:25.009Z,25.30
2022-08-31T07:19:53.858Z,25.30
2022-08-31T07:22:23.428Z,25.50
2022-08-31T07:24:58.886Z,25.50
2022-08-31T07:27:30.296Z,25.60
2022-08-31T07:30:01.630Z,25.70
2022-08-31T07:32:34.763Z,25.80
2022-08-31T07:35:04.155Z,25.80
2022-08-31T07:37:50.449Z,25.90
2022-08-31T07:40:42.320Z,26.00
2022-08-31T07:43:13.130Z,26.00
2022-08-31T07:45:44.222Z,26.10
2022-08-31T07:48:17.109Z,26.10
2022-08-31T07:51:06.599Z,26.20
2022-08-31T07:53:47.765Z,26.30
2022-08-31T07:56:34.693Z,26.20
2022-08-31T07:59:15.273Z,26.20
2022-08-31T08:01:48.336Z,26.10
2022-08-31T08:04:25.463Z,26.20
2022-08-31T08:07:17.638Z,26.00
2022-08-31T08:10:15.771Z,26.10
2022-08-31T08:13:13.531Z,26.30
2022-08-31T08:15:56.377Z,26.30
2022-08-31T08:18:46.989Z,26.40
2022-08-31T08:21:20.157Z,26.30
2022-08-31T08:23:49.570Z,26.30
2022-08-31T08:26:36.896Z,26.40
2022-08-31T08:29:29.175Z,26.50
2022-08-31T08:32:04.120Z,26.50
2022-08-31T08:34:34.376Z,26.40
2022-08-31T08:37:07.922Z,26.30
2022-08-31T08:39:36.818Z,26.30
2022-08-31T08:42:14.875Z,26.30
2022-08-31T08:44:46.330Z,26.40
2022-08-31T08:47:20.948Z,26.60
2022-08-31T08:50:03.839Z,26.70
2022-08-31T08:52:42.778Z,26.80
2022-08-31T08:55:15.714Z,26.80
2022-08-31T08:57:47.182Z,26.80
2022-08-31T09:00:23.290Z,26.90
2022-08-31T09:03:01.310Z,26.90
2022-08-31T09:06:09.776Z,27.00
2022-08-31T09:09:09.368Z,27.20
2022-08-31T09:11:55.114Z,27.20
2022-08-31T09:14:36.731Z,27.10
2022-08-31T09:17:17.188Z,27.20
2022-08-31T09:20:06.229Z,27.30
2022-08-31T09:22:47.244Z,27.40
2022-08-31T09:25:19.195Z,27.50
2022-08-31T09:28:15.323Z,27.60
2022-08-31T09:30:52.605Z,27.70
2022-08-31T09:33:26.143Z,27.70
2022-08-31T09:35:58.360Z,27.80
2022-08-31T09:38:32.752Z,28.00
2022-08-31T09:41:03.858Z,28.00
2022-08-31T09:43:41.103Z,28.00
2022-08-31T09:46:13.026Z,28.10
2022-08-31T09:48:48.862Z,28.20
2022-08-31T09:51:24.691Z,28.30
2022-08-31T09:54:11.668Z,28.30
2022-08-31T09:56:55.623Z,28.40
2022-08-31T09:59:38.519Z,28.40
2022-08-31T10:02:12.224Z,28.50
2022-08-31T10:04:54.682Z,28.50
2022-08-31T10:07:37.779Z,28.60
2022-08-31T10:10:27.929Z,28.60
2022-08-31T10:13:05.393Z,28.60
2022-08-31T10:15:41.340Z,28.70
2022-08-31T10:18:16.371Z,28.60
2022-08-31T10:20:51.872Z,28.70
2022-08-31T10:23:27.558Z,28.70
2022-08-31T10:26:02.422Z,28.80
2022-08-31T10:28:37.384Z,28.90
2022-08-31T10:31:13.758Z,28.90
2022-08-31T10:34:06.587Z,29.00
2022-08-31T10:36:40.601Z,29.00
2022-08-31T10:39:20.499Z,29.20
2022-08-31T10:41:51.372Z,29.50
2022-08-31T10:44:26.394Z,29.80
2022-08-31T10:46:59.131Z,30.10
2022-08-31T10:49:28.296Z,30.10
2022-08-31T10:52:05.455Z,30.20
2022-08-31T10:54:44.891Z,30.10
2022-08-31T10:57:32.184Z,30.00
2022-08-31T11:00:06.623Z,30.10
2022-08-31T11:02:50.421Z,30.00
2022-08-31T11:05:32.720Z,30.10
2022-08-31T11:08:15.999Z,30.40
2022-08-31T11:10:49.814Z,30.50
2022-08-31T11:13:41.390Z,30.70
2022-08-31T11:16:22.036Z,30.60
2022-08-31T11:19:21.140Z,30.70
2022-08-31T11:22:11.907Z,30.90
2022-08-31T11:25:21.359Z,31.00
2022-08-31T11:27:55.138Z,31.00
2022-08-31T11:30:29.150Z,31.10
2022-08-31T11:33:03.226Z,31.40
2022-08-31T11:36:06.796Z,31.50
2022-08-31T11:38:48.010Z,31.50
2022-08-31T11:41:41.415Z,31.30
2022-08-31T11:44:11.352Z,31.30
2022-08-31T11:47:08.815Z,31.60
2022-08-31T11:49:46.140Z,31.50
2022-08-31T11:52:32.213Z,31.40
2022-08-31T11:55:16.528Z,31.50
2022-08-31T11:58:23.634Z,31.50
2022-08-31T12:00:59.415Z,31.60
2022-08-31T12:03:56.819Z,31.40
2022-08-31T12:07:07.979Z,31.70
2022-08-31T12:10:09.627Z,31.90
2022-08-31T12:13:07.647Z,32.20
2022-08-31T12:15:53.092Z,31.90
2022-08-31T12:18:40.577Z,31.30
2022-08-31T12:21:31.371Z,31.00
2022-08-31T12:24:15.352Z,31.10
2022-08-31T12:27:18.806Z,31.20
2022-08-31T12:29:47.967Z,31.50
2022-08-31T12:32:26.934Z,31.50
2022-08-31T12:35:11.530Z,31.40
2022-08-31T12:37:41.090Z,31.20
2022-08-31T12:40:13.606Z,31.20
2022-08-31T12:42:53.099Z,31.50
2022-08-31T12:45:29.133Z,31.60
2022-08-31T12:48:07.866Z,31.80
2022-08-31T12:50:45.915Z,31.60
2022-08-31T12:53:36.518Z,31.30
2022-08-31T12:56:13.087Z,31.20
2022-08-31T12:58:57.885Z,31.10
2022-08-31T13:01:28.375Z,31.20
2022-08-31T13:04:00.923Z,31.40
2022-08-31T13:06:33.135Z,31.80
2022-08-31T13:09:03.682Z,32.10
2022-08-31T13:11:40.754Z,31.80
2022-08-31T13:14:15.395Z,31.70
2022-08-31T13:16:46.837Z,32.30
2022-08-31T13:19:26.017Z,32.90
2022-08-31T13:22:02.116Z,33.30
2022-08-31T13:24:37.023Z,32.90
2022-08-31T13:27:08.270Z,32.20
2022-08-31T13:29:45.263Z,31.70
2022-08-31T13:32:32.528Z,31.30
2022-08-31T13:35:04.494Z,31.10
2022-08-31T13:37:39.125Z,30.80
2022-08-31T13:40:12.321Z,30.70
2022-08-31T13:42:45.750Z,30.80
2022-08-31T13:45:26.691Z,30.90
2022-08-31T13:47:59.199Z,31.50
2022-08-31T13:50:34.227Z,32.10
2022-08-31T13:55:55.557Z,33.40
2022-08-31T13:58:28.909Z,33.90
2022-08-31T14:01:23.172Z,33.40
2022-08-31T14:03:58.488Z,33.20
2022-08-31T14:06:30.178Z,33.50
2022-08-31T14:09:05.810Z,34.10
2022-08-31T14:11:35.729Z,33.90
2022-08-31T14:14:07.547Z,34.60
2022-08-31T14:16:40.178Z,34.60
2022-08-31T14:19:13.534Z,35.10
2022-08-31T14:21:46.134Z,35.10
2022-08-31T14:24:16.750Z,35.10
2022-08-31T14:26:47.068Z,34.90
2022-08-31T14:29:18.042Z,34.60
2022-08-31T14:31:52.476Z,34.20
2022-08-31T14:34:27.505Z,34.30
2022-08-31T14:37:02.594Z,34.60
2022-08-31T14:39:34.559Z,34.50
2022-08-31T14:42:07.389Z,34.10
2022-08-31T14:44:39.075Z,33.70
2022-08-31T14:47:08.467Z,33.80
2022-08-31T14:49:37.341Z,33.80
2022-08-31T14:52:07.171Z,33.50
2022-08-31T14:54:37.925Z,33.40
2022-08-31T14:57:12.508Z,32.80
2022-08-31T14:59:43.948Z,32.60
2022-08-31T15:02:16.495Z,32.70
2022-08-31T15:04:46.007Z,32.70
2022-08-31T15:07:16.246Z,32.50
2022-08-31T15:09:50.234Z,32.50
2022-08-31T15:12:19.533Z,32.30
2022-08-31T15:14:48.205Z,32.20
2022-08-31T15:17:19.174Z,31.80
2022-08-31T15:19:52.261Z,31.20
2022-08-31T15:22:21.072Z,30.80
2022-08-31T15:24:51.130Z,30.70
2022-08-31T15:27:21.671Z,30.50
2022-08-31T15:29:59.268Z,30.50
2022-08-31T15:32:28.858Z,30.40
2022-08-31T15:34:58.371Z,30.50
2022-08-31T15:37:31.680Z,30.50
2022-08-31T15:40:05.413Z,30.20
2022-08-31T15:42:38.433Z,30.00
2022-08-31T15:45:08.792Z,29.80
2022-08-31T15:47:57.663Z,29.60
2022-08-31T15:50:31.888Z,29.60
2022-08-31T15:53:08.726Z,29.60
2022-08-31T15:55:40.719Z,29.60
2022-08-31T15:58:10.868Z,29.50
2022-08-31T16:00:42.238Z,29.40
2022-08-31T16:03:12.881Z,29.40
2022-08-31T16:05:43.660Z,29.40
2022-08-31T16:08:14.441Z,29.40
2022-08-31T16:10:46.693Z,29.40
2022-08-31T16:13:16.344Z,29.60
2022-08-31T16:15:51.155Z,29.80
2022-08-31T16:18:21.326Z,30.00
2022-08-31T16:20:52.197Z,30.10
2022-08-31T16:23:21.169Z,30.30
2022-08-31T16:25:51.203Z,30.20
2022-08-31T16:28:21.935Z,30.20
2022-08-31T16:30:51.974Z,30.40
2022-08-31T16:33:21.398Z,30.20
2022-08-31T16:35:50.415Z,30.20
2022-08-31T16:38:19.456Z,30.00
2022-08-31T16:40:53.340Z,30.00
2022-08-31T16:43:22.143Z,29.80
2022-08-31T16:45:50.845Z,29.80
2022-08-31T16:48:37.108Z,29.80
2022-08-31T16:51:15.092Z,29.80
2022-08-31T16:53:47.701Z,29.80
2022-08-31T16:56:18.606Z,29.60
2022-08-31T16:58:52.212Z,29.20
2022-08-31T17:01:23.963Z,29.00
2022-08-31T17:03:56.031Z,28.70
2022-08-31T17:06:25.753Z,28.50
2022-08-31T17:08:55.793Z,28.50
2022-08-31T17:11:31.386Z,28.40
2022-08-31T17:14:02.325Z,28.20
2022-08-31T17:16:34.748Z,28.20
2022-08-31T17:19:08.185Z,28.10
2022-08-31T17:21:49.579Z,28.00
2022-08-31T17:24:21.777Z,28.00
2022-08-31T17:26:55.927Z,27.90
2022-08-31T17:29:24.653Z,27.90
2022-08-31T17:31:56.332Z,27.90
2022-08-31T17:34:28.192Z,27.80
2022-08-31T17:36:59.251Z,27.70
2022-08-31T17:39:29.123Z,27.60
2022-08-31T17:41:59.423Z,27.60
2022-08-31T17:44:31.084Z,27.60
2022-08-31T17:47:03.784Z,27.50
2022-08-31T17:49:37.948Z,27.40
2022-08-31T17:52:08.617Z,27.40
2022-08-31T17:54:40.388Z,27.40
2022-08-31T17:57:13.074Z,27.30
2022-08-31T17:59:44.244Z,27.20
2022-08-31T18:02:15.106Z,27.20
2022-08-31T18:04:44.478Z,27.30
2022-08-31T18:07:14.829Z,27.40
2022-08-31T18:09:45.657Z,27.40
2022-08-31T18:12:18.254Z,27.30
2022-08-31T18:14:47.037Z,27.60
2022-08-31T18:17:17.265Z,27.60
2022-08-31T18:19:47.067Z,27.40
2022-08-31T18:22:18.466Z,27.30
2022-08-31T18:24:47.222Z,27.30
2022-08-31T18:27:17.238Z,27.20
2022-08-31T18:29:47.004Z,27.20
2022-08-31T18:32:15.996Z,27.20
2022-08-31T18:34:47.302Z,27.20
2022-08-31T18:37:25.914Z,27.20
2022-08-31T18:40:12.307Z,27.10
2022-08-31T18:43:00.019Z,27.00
2022-08-31T18:45:30.923Z,27.20
2022-08-31T18:50:50.753Z,26.90
2022-08-31T18:53:28.852Z,26.80
2022-08-31T18:56:00.673Z,26.60
2022-08-31T18:58:30.676Z,26.50
2022-08-31T19:01:00.121Z,26.50
2022-08-31T19:03:29.212Z,26.60
2022-08-31T19:05:58.484Z,26.60
2022-08-31T19:08:28.321Z,26.50
2022-08-31T19:10:58.271Z,26.50
2022-08-31T19:13:31.592Z,26.50
2022-08-31T19:16:14.626Z,26.40
2022-08-31T19:18:45.230Z,26.30
2022-08-31T19:21:15.830Z,26.30
2022-08-31T19:23:44.483Z,26.30
2022-08-31T19:26:19.634Z,26.20
2022-08-31T19:28:51.177Z,26.10
2022-08-31T19:31:22.463Z,26.00
2022-08-31T19:33:56.672Z,26.00
2022-08-31T19:36:27.386Z,25.90
2022-08-31T19:38:57.618Z,25.80
2022-08-31T19:41:27.790Z,25.70
2022-08-31T19:44:07.717Z,25.60
2022-08-31T19:46:39.783Z,25.60
2022-08-31T19:49:11.185Z,25.60
2022-08-31T19:51:42.047Z,25.60
2022-08-31T19:54:12.934Z,25.70
2022-08-31T19:56:43.809Z,25.80
2022-08-31T19:59:18.332Z,25.80
2022-08-31T20:01:52.340Z,25.70
2022-08-31T20:04:24.666Z,25.80
2022-08-31T20:06:53.273Z,25.90
2022-08-31T20:09:23.583Z,25.90
2022-08-31T20:11:54.198Z,25.90
2022-08-31T20:14:23.775Z,26.00
2022-08-31T20:16:54.995Z,25.90
2022-08-31T20:19:25.798Z,25.70
2022-08-31T20:21:55.858Z,25.50
2022-08-31T20:24:26.843Z,25.40
2022-08-31T20:27:01.762Z,25.50
2022-08-31T20:29:38.304Z,25.40
2022-08-31T20:32:08.396Z,25.30
2022-08-31T20:34:38.357Z,25.30
2022-08-31T20:37:07.624Z,25.20
2022-08-31T20:39:38.380Z,25.20
2022-08-31T20:42:07.858Z,25.10
2022-08-31T20:44:38.807Z,25.10
2022-08-31T20:47:28.812Z,25.00
2022-08-31T20:50:00.282Z,24.80
2022-08-31T20:52:34.950Z,24.80
2022-08-31T20:55:06.611Z,24.70
2022-08-31T20:57:37.725Z,24.80
2022-08-31T21:00:10.244Z,24.60
2022-08-31T21:02:41.008Z,24.50
2022-08-31T21:05:37.419Z,24.60
2022-08-31T21:08:02.651Z,24.60
2022-08-31T21:10:36.378Z,24.70
2022-08-31T21:13:11.384Z,24.70
2022-08-31T21:15:45.337Z,24.60
2022-08-31T21:18:17.677Z,24.70
2022-08-31T21:20:47.408Z,24.70
2022-08-31T21:23:16.035Z,24.90
2022-08-31T21:25:46.393Z,25.00
2022-08-31T21:28:17.529Z,25.10
2022-08-31T21:30:49.428Z,25.10
2022-08-31T21:33:19.930Z,25.10
2022-08-31T21:35:48.973Z,25.00
2022-08-31T21:38:18.311Z,25.00
2022-08-31T21:40:50.592Z,24.80
2022-08-31T21:43:19.746Z,24.70
2022-08-31T21:45:48.412Z,24.70
2022-08-31T21:48:26.464Z,24.70
2022-08-31T21:50:55.763Z,24.60
2022-08-31T21:53:25.880Z,24.60
2022-08-31T21:55:55.082Z,24.50
2022-08-31T21:58:23.734Z,24.50
2022-08-31T22:00:52.650Z,24.40
2022-08-31T22:03:22.624Z,24.40
2022-08-31T22:05:53.248Z,24.40
2022-08-31T22:08:26.486Z,24.30
2022-08-31T22:10:55.596Z,24.20
2022-08-31T22:13:24.105Z,24.20
2022-08-31T22:15:52.891Z,24.20
2022-08-31T22:21:16.471Z,24.20
2022-08-31T22:23:45.556Z,24.10
2022-08-31T22:26:14.569Z,24.10
2022-08-31T22:28:43.989Z,24.20
2022-08-31T22:31:12.761Z,24.20
2022-08-31T22:33:47.233Z,24.20
2022-08-31T22:36:19.634Z,24.20
2022-08-31T22:39:03.262Z,24.30
2022-08-31T22:41:32.891Z,24.30
2022-08-31T22:44:01.927Z,24.30
2022-08-31T22:46:30.640Z,24.30
2022-08-31T22:48:59.614Z,24.20
2022-08-31T22:51:29.711Z,24.10
2022-08-31T22:53:58.531Z,24.00
2022-08-31T22:56:29.924Z,24.00
2022-08-31T22:59:00.266Z,23.90
2022-08-31T23:01:31.309Z,23.90
2022-08-31T23:04:06.655Z,24.00
2022-08-31T23:06:39.156Z,23.90
2022-08-31T23:09:10.139Z,23.80
2022-08-31T23:11:39.994Z,23.90
2022-08-31T23:14:10.469Z,23.90
2022-08-31T23:16:42.386Z,23.70
2022-08-31T23:19:17.216Z,23.70
2022-08-31T23:21:53.019Z,23.70
2022-08-31T23:24:29.921Z,23.60
2022-08-31T23:27:04.219Z,23.60
2022-08-31T23:29:36.387Z,23.60
2022-08-31T23:32:05.411Z,23.50
2022-08-31T23:34:38.590Z,23.50
2022-08-31T23:37:10.197Z,23.50
2022-08-31T23:39:44.282Z,23.50
2022-08-31T23:42:16.262Z,23.50
2022-08-31T23:44:46.623Z,23.50
2022-08-31T23:47:17.523Z,23.40
2022-08-31T23:49:47.210Z,23.50
2022-08-31T23:52:19.682Z,23.50
2022-08-31T23:54:52.453Z,23.40
2022-08-31T23:57:31.799Z,23.50
